createdAt,value
2018-03-28T00:02:26.403Z,46.03
2018-03-28T00:04:54.375Z,33.53
2018-03-28T00:07:22.367Z,40.35
2018-03-28T00:09:50.385Z,48.28
2018-03-28T00:12:18.407Z,36.03
2018-03-28T00:14:46.423Z,44.22
2018-03-28T00:17:14.421Z,40.72
2018-03-28T00:19:42.404Z,42.05
2018-03-28T00:22:10.400Z,38.28
2018-03-28T00:24:38.440Z,41.85
2018-03-28T00:27:06.436Z,36.03
2018-03-28T00:29:34.428Z,35.58
2018-03-28T00:32:02.376Z,34.72
2018-03-28T00:34:30.359Z,45.90
2018-03-28T00:36:58.368Z,31.67
2018-03-28T00:39:26.360Z,33.53
2018-03-28T00:41:54.338Z,38.58
2018-03-28T00:44:22.340Z,34.95
2018-03-28T00:46:51.352Z,33.70
2018-03-28T00:49:19.356Z,35.92
2018-03-28T00:51:47.352Z,33.13
2018-03-28T00:54:15.323Z,32.72
2018-03-28T00:56:43.300Z,31.12
2018-03-28T00:59:11.307Z,33.22
2018-03-28T01:01:39.296Z,30.62
2018-03-28T01:04:07.271Z,37.35
2018-03-28T01:06:35.280Z,31.08
2018-03-28T01:09:03.243Z,33.80
2018-03-28T01:11:31.252Z,29.67
2018-03-28T01:13:59.208Z,33.05
2018-03-28T01:16:27.184Z,36.75
2018-03-28T01:18:55.168Z,32.20
2018-03-28T01:21:24.268Z,28.70
2018-03-28T01:23:52.259Z,32.00
2018-03-28T01:26:20.256Z,30.58
2018-03-28T01:28:48.248Z,32.45
2018-03-28T01:31:16.234Z,39.75
2018-03-28T01:33:44.231Z,37.10
2018-03-28T01:36:12.196Z,28.48
2018-03-28T01:38:40.227Z,32.50
2018-03-28T01:41:08.237Z,31.30
2018-03-28T01:43:36.230Z,27.80
2018-03-28T01:46:04.224Z,32.75
2018-03-28T01:48:32.251Z,26.48
2018-03-28T01:51:00.246Z,29.08
2018-03-28T01:53:28.211Z,25.40
2018-03-28T01:55:56.215Z,29.75
2018-03-28T01:58:25.244Z,30.88
2018-03-28T02:00:53.210Z,30.80
2018-03-28T02:03:21.196Z,32.90
2018-03-28T02:05:49.161Z,27.60
2018-03-28T02:08:17.160Z,32.25
2018-03-28T02:10:45.156Z,29.60
2018-03-28T02:13:13.153Z,29.52
2018-03-28T02:15:41.142Z,27.90
2018-03-28T02:18:09.112Z,27.73
2018-03-28T02:20:37.088Z,29.73
2018-03-28T02:23:05.064Z,30.05
2018-03-28T02:25:33.078Z,26.05
2018-03-28T02:28:01.068Z,26.80
2018-03-28T02:30:29.059Z,24.33
2018-03-28T02:32:57.067Z,30.85
2018-03-28T02:35:25.050Z,26.02
2018-03-28T02:37:53.004Z,28.27
2018-03-28T02:40:21.008Z,29.15
2018-03-28T02:42:49.011Z,28.77
2018-03-28T02:45:17.020Z,26.45
2018-03-28T02:47:45.001Z,28.02
2018-03-28T02:50:12.984Z,36.97
2018-03-28T02:52:41.002Z,27.83
2018-03-28T02:55:09.012Z,26.77
2018-03-28T02:57:37.001Z,29.30
2018-03-28T03:00:05.057Z,33.10
2018-03-28T03:02:34.067Z,38.03
2018-03-28T03:05:02.048Z,26.27
2018-03-28T03:07:30.031Z,29.30
2018-03-28T03:09:58.060Z,28.15
2018-03-28T03:12:26.042Z,28.38
2018-03-28T03:14:54.032Z,31.80
2018-03-28T03:17:22.049Z,31.08
2018-03-28T03:19:49.998Z,31.73
2018-03-28T03:22:17.974Z,27.80
2018-03-28T03:24:45.998Z,27.58
2018-03-28T03:27:13.991Z,31.55
2018-03-28T03:29:41.964Z,28.38
2018-03-28T03:32:09.961Z,29.23
2018-03-28T03:34:37.924Z,29.08
2018-03-28T03:37:05.957Z,30.00
2018-03-28T03:39:33.944Z,29.55
2018-03-28T03:42:01.973Z,32.08
2018-03-28T03:44:29.938Z,34.60
2018-03-28T03:46:57.951Z,28.25
2018-03-28T03:49:25.917Z,27.85
2018-03-28T03:51:53.895Z,32.58
2018-03-28T03:54:21.908Z,29.33
2018-03-28T03:56:49.893Z,30.88
2018-03-28T03:59:17.863Z,31.70
2018-03-28T04:01:45.855Z,34.75
2018-03-28T04:04:13.818Z,27.65
2018-03-28T04:06:41.796Z,31.85
2018-03-28T04:09:09.787Z,29.58
2018-03-28T04:11:37.733Z,32.55
2018-03-28T04:14:05.752Z,31.70
2018-03-28T04:16:33.699Z,26.37
2018-03-28T04:19:01.681Z,30.23
2018-03-28T04:21:29.692Z,34.83
2018-03-28T04:23:58.674Z,32.92
2018-03-28T04:26:27.680Z,26.95
2018-03-28T04:28:55.627Z,33.55
2018-03-28T04:31:23.604Z,34.50
2018-03-28T04:33:51.583Z,31.00
2018-03-28T04:36:19.582Z,33.45
2018-03-28T04:38:47.592Z,29.77
2018-03-28T04:41:15.564Z,31.67
2018-03-28T04:43:43.563Z,31.85
2018-03-28T04:46:11.587Z,29.48
2018-03-28T04:48:39.612Z,29.40
2018-03-28T04:51:07.605Z,39.55
2018-03-28T04:53:35.624Z,31.75
2018-03-28T04:56:03.604Z,25.77
2018-03-28T04:58:31.606Z,33.50
2018-03-28T05:00:59.634Z,37.33
2018-03-28T05:03:27.616Z,33.60
2018-03-28T05:05:55.613Z,33.95
2018-03-28T05:08:23.629Z,33.13
2018-03-28T05:10:51.619Z,32.67
2018-03-28T05:13:19.632Z,31.87
2018-03-28T05:15:47.746Z,33.90
2018-03-28T05:18:15.651Z,32.88
2018-03-28T05:20:44.616Z,30.30
2018-03-28T05:23:12.617Z,33.55
2018-03-28T05:25:40.560Z,32.55
2018-03-28T05:28:08.574Z,31.87
2018-03-28T05:30:36.592Z,33.67
2018-03-28T05:33:04.548Z,31.05
2018-03-28T05:35:32.554Z,35.85
2018-03-28T05:38:00.555Z,31.62
2018-03-28T05:40:28.508Z,34.70
2018-03-28T05:42:56.531Z,32.03
2018-03-28T05:45:24.550Z,32.10
2018-03-28T05:47:52.555Z,26.33
2018-03-28T05:50:20.567Z,26.50
2018-03-28T05:52:48.571Z,32.63
2018-03-28T05:55:16.568Z,29.08
2018-03-28T05:57:44.579Z,31.33
2018-03-28T06:00:12.604Z,31.50
2018-03-28T06:02:40.549Z,31.27
2018-03-28T06:05:08.545Z,25.20
2018-03-28T06:07:36.565Z,24.75
2018-03-28T06:10:04.536Z,21.75
2018-03-28T06:12:32.495Z,30.37
2018-03-28T06:15:00.502Z,27.83
2018-03-28T06:17:28.484Z,23.92
2018-03-28T06:19:56.484Z,21.62
2018-03-28T06:22:24.476Z,23.75
2018-03-28T06:24:52.511Z,20.73
2018-03-28T06:27:20.507Z,19.92
2018-03-28T06:29:48.499Z,22.45
2018-03-28T06:32:16.484Z,31.62
2018-03-28T06:34:44.461Z,20.55
2018-03-28T06:37:12.462Z,18.33
2018-03-28T06:39:40.464Z,23.98
2018-03-28T06:42:09.417Z,18.45
2018-03-28T06:44:37.404Z,15.18
2018-03-28T06:47:05.385Z,16.60
2018-03-28T06:49:33.364Z,15.13
2018-03-28T06:52:01.384Z,13.98
2018-03-28T06:54:29.344Z,9.73
2018-03-28T06:56:57.399Z,18.35
2018-03-28T06:59:25.395Z,14.55
2018-03-28T07:01:53.376Z,11.85
2018-03-28T07:04:21.344Z,16.52
2018-03-28T07:06:49.313Z,14.80
2018-03-28T07:09:17.299Z,15.50
2018-03-28T07:11:45.284Z,11.12
2018-03-28T07:14:13.253Z,14.30
2018-03-28T07:16:41.228Z,12.27
2018-03-28T07:19:09.235Z,10.32
2018-03-28T07:21:37.244Z,12.60
2018-03-28T07:24:05.204Z,10.10
2018-03-28T07:26:33.201Z,12.02
2018-03-28T07:29:01.252Z,9.90
2018-03-28T07:31:29.238Z,14.90
2018-03-28T07:33:57.248Z,7.90
2018-03-28T07:36:25.243Z,13.73
2018-03-28T07:38:53.272Z,12.93
2018-03-28T07:41:21.262Z,9.68
2018-03-28T07:43:49.838Z,7.68
2018-03-28T07:46:17.788Z,10.48
2018-03-28T07:48:45.788Z,10.35
2018-03-28T07:51:13.846Z,9.50
2018-03-28T07:53:42.852Z,9.43
2018-03-28T07:56:11.096Z,14.63
2018-03-28T07:58:39.184Z,11.07
2018-03-28T08:01:07.226Z,9.57
2018-03-28T08:03:35.220Z,9.85
2018-03-28T08:06:03.216Z,10.73
2018-03-28T08:08:32.519Z,8.23
2018-03-28T08:11:00.548Z,12.73
2018-03-28T08:13:28.552Z,8.90
2018-03-28T08:15:56.524Z,8.20
2018-03-28T08:18:24.512Z,11.88
2018-03-28T08:20:52.488Z,8.13
2018-03-28T08:23:20.482Z,7.82
2018-03-28T08:25:48.461Z,12.73
2018-03-28T08:28:16.448Z,8.57
2018-03-28T08:30:44.572Z,6.80
2018-03-28T08:33:12.821Z,8.65
2018-03-28T08:35:40.848Z,9.95
2018-03-28T08:38:08.803Z,9.50
2018-03-28T08:40:36.809Z,9.30
2018-03-28T08:43:04.820Z,11.60
2018-03-28T08:45:32.820Z,8.05
2018-03-28T08:48:00.798Z,15.75
2018-03-28T08:50:28.820Z,11.27
2018-03-28T08:52:57.800Z,11.85
2018-03-28T08:55:25.780Z,8.60
2018-03-28T08:57:53.752Z,7.90
2018-03-28T09:00:21.763Z,8.85
2018-03-28T09:02:49.770Z,10.57
2018-03-28T09:05:17.770Z,14.77
2018-03-28T09:07:45.749Z,8.27
2018-03-28T09:10:13.768Z,11.95
2018-03-28T09:12:41.756Z,11.18
2018-03-28T09:15:09.767Z,16.40
2018-03-28T09:17:37.769Z,7.78
2018-03-28T09:20:05.763Z,11.50
2018-03-28T09:22:33.731Z,10.30
2018-03-28T09:25:01.755Z,11.27
2018-03-28T09:27:29.777Z,8.50
2018-03-28T09:29:57.758Z,13.55
2018-03-28T09:32:25.777Z,15.60
2018-03-28T09:34:53.748Z,9.85
2018-03-28T09:37:21.730Z,15.68
2018-03-28T09:39:49.765Z,10.43
2018-03-28T09:42:18.527Z,14.32
2018-03-28T09:44:46.501Z,14.68
2018-03-28T09:47:14.528Z,10.80
2018-03-28T09:49:42.533Z,9.63
2018-03-28T09:52:10.500Z,10.85
2018-03-28T09:54:38.725Z,13.65
2018-03-28T09:57:06.723Z,12.50
2018-03-28T09:59:35.277Z,14.38
2018-03-28T10:02:10.072Z,8.90
2018-03-28T10:04:45.110Z,17.50
2018-03-28T10:07:13.624Z,15.93
2018-03-28T10:09:41.667Z,11.15
2018-03-28T10:12:09.648Z,14.30
2018-03-28T10:14:37.636Z,11.98
2018-03-28T10:17:05.628Z,14.70
2018-03-28T10:19:34.389Z,13.20
2018-03-28T10:22:02.377Z,10.17
2018-03-28T10:24:30.371Z,11.63
2018-03-28T10:26:58.326Z,9.97
2018-03-28T10:29:26.300Z,10.10
2018-03-28T10:31:54.299Z,9.00
2018-03-28T10:34:22.284Z,12.32
2018-03-28T10:36:50.288Z,13.50
2018-03-28T10:39:18.456Z,7.00
2018-03-28T10:41:46.532Z,10.93
2018-03-28T10:44:14.484Z,9.23
2018-03-28T10:46:42.499Z,9.87
2018-03-28T10:49:10.509Z,12.80
2018-03-28T10:51:38.512Z,12.03
2018-03-28T10:54:06.508Z,14.00
2018-03-28T10:56:34.502Z,9.13
2018-03-28T10:59:02.490Z,10.17
2018-03-28T11:01:30.488Z,9.83
2018-03-28T11:03:58.460Z,7.17
2018-03-28T11:06:26.484Z,12.77
2018-03-28T11:08:54.501Z,9.73
2018-03-28T11:11:22.465Z,15.23
2018-03-28T11:13:50.497Z,11.53
2018-03-28T11:16:18.486Z,9.63
2018-03-28T11:18:46.492Z,10.83
2018-03-28T11:21:14.495Z,11.80
2018-03-28T11:23:42.513Z,11.93
2018-03-28T11:26:10.474Z,9.80
2018-03-28T11:28:38.485Z,7.70
2018-03-28T11:31:06.469Z,7.43
2018-03-28T11:33:34.426Z,6.30
2018-03-28T11:36:02.714Z,7.77
2018-03-28T11:38:30.716Z,7.53
2018-03-28T11:40:59.811Z,6.37
2018-03-28T11:43:27.862Z,6.30
2018-03-28T11:45:55.881Z,6.53
2018-03-28T11:48:24.986Z,5.97
2018-03-28T11:50:52.995Z,5.60
2018-03-28T11:53:21.053Z,7.13
2018-03-28T11:55:49.044Z,8.70
2018-03-28T11:58:20.690Z,10.40
2018-03-28T12:00:48.708Z,8.40
2018-03-28T12:03:16.734Z,10.13
2018-03-28T12:05:44.737Z,14.50
2018-03-28T12:08:12.731Z,10.20
2018-03-28T12:10:40.688Z,6.93
2018-03-28T12:13:08.690Z,9.47
2018-03-28T12:15:36.642Z,10.47
2018-03-28T12:18:04.625Z,10.60
2018-03-28T12:20:32.640Z,8.97
2018-03-28T12:23:00.643Z,8.60
2018-03-28T12:25:28.654Z,11.00
2018-03-28T12:27:56.660Z,17.87
2018-03-28T12:30:25.718Z,11.40
2018-03-28T12:32:53.684Z,11.77
2018-03-28T12:35:22.701Z,10.03
2018-03-28T12:37:50.696Z,11.90
2018-03-28T12:40:18.680Z,9.30
2018-03-28T12:42:46.639Z,8.53
2018-03-28T12:45:14.616Z,17.23
2018-03-28T12:47:42.557Z,8.27
2018-03-28T12:50:10.579Z,8.27
2018-03-28T12:52:38.572Z,5.47
2018-03-28T12:55:06.559Z,13.47
2018-03-28T12:57:34.527Z,4.90
2018-03-28T13:00:02.529Z,5.80
2018-03-28T13:02:30.607Z,12.53
2018-03-28T13:04:58.554Z,13.73
2018-03-28T13:07:26.616Z,7.93
2018-03-28T13:09:54.602Z,7.30
2018-03-28T13:12:22.617Z,8.10
2018-03-28T13:14:50.606Z,12.77
2018-03-28T13:17:18.575Z,7.93
2018-03-28T13:19:46.532Z,5.83
2018-03-28T13:22:14.532Z,7.20
2018-03-28T13:24:43.660Z,6.40
2018-03-28T13:27:11.640Z,10.03
2018-03-28T13:29:39.668Z,12.50
2018-03-28T13:32:07.647Z,17.23
2018-03-28T13:34:35.677Z,12.93
2018-03-28T13:37:03.671Z,8.33
2018-03-28T13:39:31.701Z,8.30
2018-03-28T13:41:59.703Z,12.97
2018-03-28T13:44:27.705Z,9.10
2018-03-28T13:46:55.680Z,11.17
2018-03-28T13:49:23.667Z,10.07
2018-03-28T13:51:51.643Z,9.00
2018-03-28T13:54:19.988Z,14.75
2018-03-28T13:56:49.000Z,13.00
2018-03-28T13:59:16.978Z,12.40
2018-03-28T14:01:44.983Z,9.00
2018-03-28T14:04:13.067Z,13.77
2018-03-28T14:06:41.042Z,7.77
2018-03-28T14:09:08.997Z,8.70
2018-03-28T14:11:37.011Z,8.00
2018-03-28T14:14:05.004Z,12.43
2018-03-28T14:16:32.996Z,9.15
2018-03-28T14:19:01.003Z,10.77
2018-03-28T14:21:29.010Z,9.40
2018-03-28T14:23:56.975Z,14.23
2018-03-28T14:26:25.008Z,11.03
2018-03-28T14:28:53.173Z,12.23
2018-03-28T14:31:21.151Z,9.60
2018-03-28T14:33:49.172Z,13.10
2018-03-28T14:36:17.194Z,5.97
2018-03-28T14:38:45.166Z,9.67
2018-03-28T14:41:13.173Z,8.63
2018-03-28T14:43:41.194Z,7.40
2018-03-28T14:46:09.157Z,10.73
2018-03-28T14:48:37.149Z,10.88
2018-03-28T14:51:05.152Z,9.82
2018-03-28T14:53:33.424Z,7.53
2018-03-28T14:56:01.440Z,7.28
2018-03-28T14:58:29.480Z,10.90
2018-03-28T15:00:57.479Z,9.02
2018-03-28T15:03:25.441Z,13.73
2018-03-28T15:05:53.447Z,10.18
2018-03-28T15:08:21.472Z,10.15
2018-03-28T15:10:49.468Z,7.28
2018-03-28T15:13:17.510Z,9.77
2018-03-28T15:15:45.484Z,10.73
2018-03-28T15:18:13.531Z,8.73
2018-03-28T15:20:41.524Z,14.33
2018-03-28T15:23:09.529Z,9.32
2018-03-28T15:25:37.732Z,5.45
2018-03-28T15:28:05.748Z,9.82
2018-03-28T15:30:33.748Z,8.33
2018-03-28T15:33:01.733Z,8.13
2018-03-28T15:35:29.736Z,8.90
2018-03-28T15:37:57.767Z,8.65
2018-03-28T15:40:25.764Z,7.62
2018-03-28T15:42:53.760Z,7.72
2018-03-28T15:45:21.768Z,8.43
2018-03-28T15:47:49.744Z,6.93
2018-03-28T15:50:17.720Z,7.05
2018-03-28T15:52:45.704Z,11.47
2018-03-28T15:55:13.744Z,11.93
2018-03-28T15:57:41.756Z,10.80
2018-03-28T16:00:09.770Z,10.80
2018-03-28T16:02:37.740Z,10.00
2018-03-28T16:05:05.712Z,11.05
2018-03-28T16:07:33.700Z,10.25
2018-03-28T16:10:01.707Z,9.90
2018-03-28T16:12:29.719Z,16.63
2018-03-28T16:14:58.719Z,8.33
2018-03-28T16:17:27.730Z,9.50
2018-03-28T16:19:55.740Z,11.98
2018-03-28T16:22:23.759Z,15.30
2018-03-28T16:24:51.799Z,11.07
2018-03-28T17:13:12.699Z,8.70
2018-03-28T17:15:40.664Z,8.48
2018-03-28T17:18:08.644Z,11.25
2018-03-28T17:20:36.656Z,8.15
2018-03-28T17:23:04.668Z,8.93
2018-03-28T17:25:32.761Z,10.27
2018-03-28T17:28:01.647Z,10.82
2018-03-28T17:30:29.644Z,13.75
2018-03-28T17:32:57.596Z,17.23
2018-03-28T17:35:25.619Z,15.10
2018-03-28T17:37:53.636Z,12.37
2018-03-28T17:40:21.634Z,13.00
2018-03-28T17:42:49.650Z,18.17
2018-03-28T17:45:17.621Z,15.70
2018-03-28T17:47:45.617Z,13.75
2018-03-28T17:50:13.616Z,15.33
2018-03-28T17:52:41.576Z,14.48
2018-03-28T17:55:09.568Z,12.15
2018-03-28T17:57:37.549Z,14.60
2018-03-28T18:00:05.548Z,13.97
2018-03-28T18:02:33.556Z,13.90
2018-03-28T18:05:04.600Z,14.27
2018-03-28T18:07:36.366Z,12.05
2018-03-28T18:10:04.705Z,15.80
2018-03-28T18:12:32.666Z,18.00
2018-03-28T18:15:00.664Z,16.67
2018-03-28T18:17:28.652Z,14.73
2018-03-28T18:19:56.640Z,17.90
2018-03-28T18:22:24.630Z,18.80
2018-03-28T18:24:52.621Z,26.20
2018-03-28T18:27:21.624Z,22.47
2018-03-28T18:29:49.588Z,20.37
2018-03-28T18:32:18.718Z,22.10
2018-03-28T18:34:46.716Z,26.10
2018-03-28T18:37:14.758Z,21.48
2018-03-28T18:39:43.550Z,30.20
2018-03-28T18:42:11.788Z,26.43
2018-03-28T18:44:40.800Z,19.60
2018-03-28T18:47:09.892Z,17.73
2018-03-28T18:49:37.918Z,15.93
2018-03-28T18:52:06.705Z,14.75
2018-03-28T18:54:34.719Z,14.43
2018-03-28T18:57:02.748Z,16.63
2018-03-28T18:59:31.773Z,15.93
2018-03-28T19:02:00.777Z,22.60
2018-03-28T19:04:28.780Z,16.25
2018-03-28T19:06:56.756Z,18.97
2018-03-28T19:09:24.749Z,14.50
2018-03-28T19:11:52.724Z,13.30
2018-03-28T19:14:20.719Z,17.57
2018-03-28T19:16:48.722Z,19.83
2018-03-28T19:19:16.716Z,19.50
2018-03-28T19:21:44.711Z,15.82
2018-03-28T19:24:12.781Z,17.20
2018-03-28T19:26:40.877Z,19.48
2018-03-28T19:29:08.860Z,17.85
2018-03-28T19:31:36.844Z,15.90
2018-03-28T19:34:04.909Z,18.15
2018-03-28T19:36:32.954Z,16.37
2018-03-28T19:39:00.941Z,18.85
2018-03-28T19:41:29.094Z,17.60
2018-03-28T19:43:57.142Z,18.48
2018-03-28T19:46:25.137Z,18.37
2018-03-28T19:48:53.136Z,15.10
2018-03-28T19:51:21.426Z,14.80
2018-03-28T19:53:49.453Z,15.68
2018-03-28T19:56:17.515Z,18.98
2018-03-28T19:58:45.686Z,20.23
2018-03-28T20:01:13.695Z,19.75
2018-03-28T20:03:41.683Z,25.12
2018-03-28T20:06:09.675Z,22.08
2018-03-28T20:08:37.727Z,24.23
2018-03-28T20:11:05.743Z,19.27
2018-03-28T20:13:33.772Z,15.88
2018-03-28T20:16:01.865Z,24.12
2018-03-28T20:18:29.847Z,14.48
2018-03-28T20:20:57.872Z,6.90
2018-03-28T20:23:25.848Z,2.72
2018-03-28T20:25:53.810Z,1.05
2018-03-28T20:28:21.811Z,1.75
2018-03-28T20:30:49.804Z,2.35
2018-03-28T20:33:17.800Z,2.05
2018-03-28T20:35:45.808Z,1.15
2018-03-28T20:38:13.772Z,1.50
2018-03-28T20:40:41.787Z,2.40
2018-03-28T20:43:09.785Z,1.25
2018-03-28T20:45:37.762Z,1.30
2018-03-28T20:48:05.776Z,1.92
2018-03-28T20:50:33.778Z,1.37
2018-03-28T20:53:01.825Z,1.52
2018-03-28T20:55:29.863Z,1.42
2018-03-28T20:57:57.839Z,1.35
2018-03-28T21:00:25.809Z,2.28
2018-03-28T21:02:53.795Z,1.60
2018-03-28T21:05:21.779Z,1.73
2018-03-28T21:07:49.770Z,2.67
2018-03-28T21:10:17.893Z,3.05
2018-03-28T21:12:45.847Z,2.20
2018-03-28T21:15:13.845Z,2.30
2018-03-28T21:17:41.800Z,2.47
2018-03-28T21:20:09.800Z,2.65
2018-03-28T21:22:37.803Z,3.20
2018-03-28T21:25:05.776Z,3.15
2018-03-28T21:27:33.775Z,2.70
2018-03-28T21:30:01.762Z,3.05
2018-03-28T21:32:29.776Z,2.87
2018-03-28T21:34:57.782Z,2.42
2018-03-28T21:37:26.816Z,2.80
2018-03-28T21:39:54.809Z,2.62
2018-03-28T21:42:22.793Z,1.98
2018-03-28T21:44:50.788Z,2.97
2018-03-28T21:47:18.788Z,2.35
2018-03-28T21:49:46.798Z,2.17
2018-03-28T21:52:14.759Z,2.30
2018-03-28T21:54:42.760Z,3.10
2018-03-28T21:57:10.767Z,3.78
2018-03-28T21:59:38.764Z,2.80
2018-03-28T22:02:06.744Z,2.20
2018-03-28T22:04:34.716Z,3.17
2018-03-28T22:07:02.737Z,3.10
2018-03-28T22:09:30.737Z,3.37
2018-03-28T22:11:58.676Z,4.50
2018-03-28T22:14:26.703Z,3.55
2018-03-28T22:16:54.671Z,3.40
2018-03-28T22:19:22.635Z,3.05
2018-03-28T22:21:50.648Z,4.50
2018-03-28T22:24:19.684Z,4.40
2018-03-28T22:26:47.706Z,4.18
2018-03-28T22:29:15.725Z,4.10
2018-03-28T22:31:43.740Z,4.43
2018-03-28T22:34:11.737Z,4.25
2018-03-28T22:36:39.692Z,4.60
2018-03-28T22:39:07.666Z,4.70
2018-03-28T22:41:35.652Z,5.18
2018-03-28T22:44:03.624Z,4.68
2018-03-28T22:46:31.576Z,4.18
2018-03-28T22:48:59.587Z,4.32
2018-03-28T22:51:27.588Z,5.53
2018-03-28T22:53:56.596Z,4.60
2018-03-28T22:56:24.632Z,4.85
2018-03-28T22:58:52.640Z,4.80
2018-03-28T23:01:21.624Z,5.20
2018-03-28T23:03:50.664Z,4.82
2018-03-28T23:06:18.644Z,5.05
2018-03-28T23:08:46.592Z,4.37
2018-03-28T23:11:14.595Z,5.78
2018-03-28T23:13:42.584Z,5.55
2018-03-28T23:16:10.537Z,4.50
2018-03-28T23:18:38.536Z,5.82
2018-03-28T23:21:06.508Z,5.10
2018-03-28T23:23:34.498Z,5.50
2018-03-28T23:26:03.480Z,5.93
2018-03-28T23:28:31.489Z,5.18
2018-03-28T23:30:59.444Z,5.37
2018-03-28T23:33:27.396Z,4.15
2018-03-28T23:35:55.338Z,3.97
2018-03-28T23:38:23.347Z,5.20
2018-03-28T23:40:51.340Z,3.60
2018-03-28T23:43:19.316Z,3.10
2018-03-28T23:45:47.304Z,3.50
2018-03-28T23:48:15.308Z,3.75
2018-03-28T23:50:43.320Z,4.25
2018-03-28T23:53:11.294Z,4.03
2018-03-28T23:55:39.250Z,4.78
2018-03-28T23:58:07.269Z,4.40
